createdAt,value
2023-08-06T00:00:55.541Z,16.53
2023-08-06T00:03:22.235Z,16.53
2023-08-06T00:05:48.816Z,16.60
2023-08-06T00:08:15.315Z,16.57
2023-08-06T00:10:42.766Z,16.62
2023-08-06T00:13:09.363Z,16.67
2023-08-06T00:15:36.044Z,16.66
2023-08-06T00:18:02.785Z,16.62
2023-08-06T00:20:29.436Z,16.69
2023-08-06T00:22:56.098Z,16.62
2023-08-06T00:25:22.609Z,16.64
2023-08-06T00:27:49.096Z,16.72
2023-08-06T00:30:15.618Z,16.73
2023-08-06T00:32:42.209Z,16.72
2023-08-06T00:35:08.931Z,16.74
2023-08-06T00:37:35.454Z,16.76
2023-08-06T00:40:02.144Z,16.64
2023-08-06T00:42:28.628Z,16.59
2023-08-06T00:44:55.169Z,16.62
2023-08-06T00:47:21.758Z,16.58
2023-08-06T00:49:49.167Z,16.43
2023-08-06T00:52:15.836Z,16.52
2023-08-06T00:54:42.717Z,16.20
2023-08-06T00:57:10.764Z,16.06
2023-08-06T00:59:37.438Z,16.07
2023-08-06T01:02:04.156Z,15.96
2023-08-06T01:04:30.820Z,15.89
2023-08-06T01:07:09.850Z,15.62
2023-08-06T01:09:55.451Z,15.60
2023-08-06T01:12:37.318Z,15.66
2023-08-06T01:15:07.420Z,15.51
2023-08-06T01:17:35.190Z,15.66
2023-08-06T01:20:01.740Z,15.75
2023-08-06T01:22:28.267Z,15.77
2023-08-06T01:24:55.531Z,15.90
2023-08-06T01:27:29.434Z,15.85
2023-08-06T01:30:20.802Z,15.85
2023-08-06T01:32:51.831Z,15.86
2023-08-06T01:35:20.537Z,15.94
2023-08-06T01:37:48.542Z,15.91
2023-08-06T01:40:15.544Z,16.04
2023-08-06T01:42:42.138Z,15.95
2023-08-06T01:45:09.528Z,16.03
2023-08-06T01:47:36.694Z,15.98
2023-08-06T01:50:03.736Z,15.93
2023-08-06T01:52:30.246Z,15.90
2023-08-06T01:54:56.933Z,15.99
2023-08-06T01:57:23.671Z,16.03
2023-08-06T01:59:50.257Z,16.00
2023-08-06T02:02:16.872Z,15.93
2023-08-06T02:04:43.419Z,16.05
2023-08-06T02:07:10.056Z,16.10
2023-08-06T02:09:36.736Z,16.07
2023-08-06T02:12:03.643Z,16.04
2023-08-06T02:14:30.570Z,15.83
2023-08-06T02:16:57.134Z,15.71
2023-08-06T02:19:23.721Z,15.70
2023-08-06T02:21:50.313Z,15.73
2023-08-06T02:24:16.886Z,15.81
2023-08-06T02:26:43.429Z,15.83
2023-08-06T02:29:09.929Z,15.80
2023-08-06T02:31:36.504Z,15.86
2023-08-06T02:34:03.036Z,15.78
2023-08-06T02:36:30.555Z,15.80
2023-08-06T02:38:57.237Z,15.86
2023-08-06T02:41:23.930Z,15.84
2023-08-06T02:43:50.479Z,15.90
2023-08-06T02:46:17.072Z,15.86
2023-08-06T02:48:43.586Z,15.81
2023-08-06T02:51:10.164Z,15.79
2023-08-06T02:53:36.696Z,15.71
2023-08-06T02:56:03.796Z,15.66
2023-08-06T02:58:30.435Z,15.60
2023-08-06T03:01:06.267Z,15.57
2023-08-06T03:03:34.178Z,15.60
2023-08-06T03:06:01.456Z,15.48
2023-08-06T03:08:28.089Z,15.47
2023-08-06T03:10:54.797Z,15.37
2023-08-06T03:13:21.548Z,15.46
2023-08-06T03:15:58.702Z,15.46
2023-08-06T03:18:27.016Z,15.40
2023-08-06T03:20:54.224Z,15.43
2023-08-06T03:23:20.961Z,15.40
2023-08-06T03:25:47.789Z,15.25
2023-08-06T03:28:14.386Z,15.25
2023-08-06T03:30:41.148Z,15.34
2023-08-06T03:33:07.792Z,15.30
2023-08-06T03:35:34.537Z,15.38
2023-08-06T03:38:01.044Z,15.47
2023-08-06T03:40:27.587Z,15.39
2023-08-06T03:42:54.116Z,15.38
2023-08-06T03:45:20.617Z,15.41
2023-08-06T03:47:47.199Z,15.37
2023-08-06T03:50:13.889Z,15.33
2023-08-06T03:52:40.498Z,15.34
2023-08-06T03:55:08.180Z,15.21
2023-08-06T03:57:34.721Z,15.30
2023-08-06T04:00:01.266Z,15.35
2023-08-06T04:02:27.911Z,15.36
2023-08-06T04:04:55.033Z,15.27
2023-08-06T04:07:21.783Z,15.32
2023-08-06T04:09:56.480Z,15.23
2023-08-06T04:12:23.220Z,15.17
2023-08-06T04:14:50.969Z,15.22
2023-08-06T04:17:17.498Z,15.27
2023-08-06T04:19:44.306Z,15.23
2023-08-06T04:22:10.885Z,15.18
2023-08-06T04:24:37.362Z,15.23
2023-08-06T04:27:04.187Z,15.09
2023-08-06T04:29:30.695Z,14.90
2023-08-06T04:31:57.353Z,14.82
2023-08-06T04:34:23.858Z,14.62
2023-08-06T04:36:50.476Z,14.86
2023-08-06T04:39:17.059Z,14.90
2023-08-06T04:41:43.634Z,14.89
2023-08-06T04:44:10.131Z,14.88
2023-08-06T04:46:36.681Z,14.90
2023-08-06T04:49:03.216Z,15.03
2023-08-06T04:51:29.768Z,15.12
2023-08-06T04:53:58.120Z,14.94
2023-08-06T04:56:25.071Z,15.00
2023-08-06T04:58:51.715Z,15.09
2023-08-06T05:01:18.315Z,15.14
2023-08-06T05:03:44.918Z,15.12
2023-08-06T05:06:11.778Z,15.07
2023-08-06T05:08:38.269Z,15.09
2023-08-06T05:11:04.827Z,15.05
2023-08-06T05:13:31.388Z,15.22
2023-08-06T05:15:58.109Z,15.17
2023-08-06T05:18:24.656Z,15.26
2023-08-06T05:20:51.154Z,15.09
2023-08-06T05:23:18.012Z,15.22
2023-08-06T05:25:44.708Z,15.34
2023-08-06T05:28:11.255Z,15.27
2023-08-06T05:30:44.005Z,15.35
2023-08-06T05:33:10.541Z,15.49
2023-08-06T05:35:37.105Z,15.50
2023-08-06T05:38:03.647Z,15.40
2023-08-06T05:40:30.245Z,15.50
2023-08-06T05:42:57.230Z,15.54
2023-08-06T05:45:23.792Z,15.34
2023-08-06T05:47:50.946Z,15.51
2023-08-06T05:50:17.574Z,15.51
2023-08-06T05:52:45.041Z,15.53
2023-08-06T05:55:12.793Z,15.39
2023-08-06T05:57:39.353Z,15.54
2023-08-06T06:00:07.324Z,15.44
2023-08-06T06:02:33.921Z,15.32
2023-08-06T06:05:00.461Z,15.47
2023-08-06T06:07:27.034Z,15.79
2023-08-06T06:09:53.569Z,15.90
2023-08-06T06:12:20.589Z,16.01
2023-08-06T06:14:47.199Z,15.98
2023-08-06T06:17:13.790Z,16.04
2023-08-06T06:19:40.357Z,16.16
2023-08-06T06:22:06.878Z,16.20
2023-08-06T06:24:33.566Z,16.19
2023-08-06T06:27:00.256Z,16.25
2023-08-06T06:29:26.813Z,16.16
2023-08-06T06:31:53.556Z,16.31
2023-08-06T06:34:20.318Z,16.29
2023-08-06T06:36:47.136Z,16.40
2023-08-06T06:39:13.660Z,16.60
2023-08-06T06:41:40.198Z,16.54
2023-08-06T06:44:07.094Z,16.65
2023-08-06T06:46:33.705Z,16.83
2023-08-06T06:49:00.216Z,16.53
2023-08-06T06:51:26.740Z,16.62
2023-08-06T06:53:53.306Z,16.85
2023-08-06T06:56:19.878Z,17.21
2023-08-06T06:58:46.679Z,17.26
2023-08-06T07:01:13.374Z,17.51
2023-08-06T07:03:40.149Z,17.67
2023-08-06T07:06:07.685Z,18.12
2023-08-06T07:08:34.460Z,18.38
2023-08-06T07:11:03.628Z,19.19
2023-08-06T07:13:30.975Z,19.76
2023-08-06T07:15:57.613Z,20.01
2023-08-06T07:18:24.717Z,19.61
2023-08-06T07:20:55.466Z,19.33
2023-08-06T07:23:23.985Z,19.33
2023-08-06T07:25:51.068Z,18.73
2023-08-06T07:28:17.718Z,19.46
2023-08-06T07:30:46.077Z,19.58
2023-08-06T07:33:12.921Z,21.00
2023-08-06T07:35:40.159Z,21.08
2023-08-06T07:38:07.239Z,21.29
2023-08-06T07:40:33.906Z,21.40
2023-08-06T07:43:00.454Z,21.97
2023-08-06T07:45:28.186Z,20.80
2023-08-06T07:47:55.068Z,20.86
2023-08-06T07:50:21.863Z,20.90
2023-08-06T07:52:48.430Z,19.79
2023-08-06T07:55:15.114Z,19.40
2023-08-06T07:57:41.739Z,19.31
2023-08-06T08:00:08.851Z,19.01
2023-08-06T08:02:35.504Z,18.49
2023-08-06T08:05:03.247Z,19.05
2023-08-06T08:07:31.646Z,18.86
2023-08-06T08:09:58.173Z,19.88
2023-08-06T08:12:24.752Z,21.13
2023-08-06T08:14:51.400Z,20.71
2023-08-06T08:17:18.036Z,19.97
2023-08-06T08:19:44.648Z,19.37
2023-08-06T08:22:11.320Z,18.55
2023-08-06T08:24:38.011Z,18.61
2023-08-06T08:27:04.772Z,18.50
2023-08-06T08:29:31.371Z,18.76
2023-08-06T08:31:58.318Z,18.72
2023-08-06T08:34:25.203Z,18.87
2023-08-06T08:36:51.829Z,18.97
2023-08-06T08:39:18.485Z,19.97
2023-08-06T08:41:45.173Z,20.95
2023-08-06T08:44:12.163Z,20.98
2023-08-06T08:46:41.442Z,20.96
2023-08-06T08:49:08.406Z,20.49
2023-08-06T08:51:38.769Z,20.92
2023-08-06T08:54:05.714Z,20.51
2023-08-06T08:56:33.008Z,20.20
2023-08-06T08:59:00.406Z,20.04
2023-08-06T09:01:30.155Z,19.97
2023-08-06T09:03:58.965Z,21.10
2023-08-06T09:06:28.495Z,22.24
2023-08-06T09:09:08.439Z,22.00
2023-08-06T09:11:42.009Z,20.97
2023-08-06T09:14:09.723Z,20.38
2023-08-06T09:16:39.589Z,20.16
2023-08-06T09:19:10.857Z,20.63
2023-08-06T09:21:39.843Z,21.26
2023-08-06T09:24:13.673Z,20.95
2023-08-06T09:26:42.392Z,21.01
2023-08-06T09:29:12.650Z,20.88
2023-08-06T09:31:49.754Z,20.72
2023-08-06T09:34:19.990Z,20.75
2023-08-06T09:36:48.441Z,21.21
2023-08-06T09:39:22.980Z,20.82
2023-08-06T09:41:49.721Z,20.20
2023-08-06T09:44:20.873Z,20.06
2023-08-06T09:46:54.543Z,20.01
2023-08-06T09:49:26.073Z,21.18
2023-08-06T09:51:54.928Z,21.71
2023-08-06T09:56:52.188Z,21.42
2023-08-06T09:59:19.590Z,22.38
2023-08-06T10:01:46.938Z,22.61
2023-08-06T10:04:23.584Z,21.60
2023-08-06T10:06:51.868Z,20.61
2023-08-06T10:09:19.669Z,20.11
2023-08-06T10:11:54.680Z,19.35
2023-08-06T10:14:27.521Z,19.29
2023-08-06T10:16:58.656Z,18.96
2023-08-06T10:19:26.314Z,18.80
2023-08-06T10:22:14.955Z,18.88
2023-08-06T10:24:53.753Z,19.13
2023-08-06T10:27:34.231Z,19.07
2023-08-06T10:30:22.564Z,19.24
2023-08-06T10:32:50.597Z,19.42
2023-08-06T10:35:45.576Z,19.34
2023-08-06T10:38:27.363Z,20.21
2023-08-06T10:40:53.858Z,20.92
2023-08-06T10:43:34.257Z,20.19
2023-08-06T10:46:03.380Z,20.06
2023-08-06T10:48:40.437Z,19.94
2023-08-06T10:51:12.986Z,20.66
2023-08-06T10:53:43.430Z,20.83
2023-08-06T10:56:20.817Z,20.26
2023-08-06T10:58:48.844Z,20.07
2023-08-06T11:01:16.585Z,20.26
2023-08-06T11:03:45.228Z,19.83
2023-08-06T11:06:12.152Z,19.66
2023-08-06T11:08:41.749Z,19.86
2023-08-06T11:11:16.125Z,19.79
2023-08-06T11:13:49.808Z,19.68
2023-08-06T11:16:21.800Z,19.55
2023-08-06T11:18:48.874Z,19.63
2023-08-06T11:21:15.696Z,19.96
2023-08-06T11:23:42.725Z,21.02
2023-08-06T11:26:09.753Z,21.24
2023-08-06T11:28:36.330Z,20.87
2023-08-06T11:31:04.742Z,21.72
2023-08-06T11:33:32.249Z,21.66
2023-08-06T11:36:00.921Z,21.98
2023-08-06T11:38:29.655Z,21.59
2023-08-06T11:40:56.338Z,20.59
2023-08-06T11:43:23.602Z,20.68
2023-08-06T11:45:51.829Z,20.15
2023-08-06T11:48:19.394Z,19.29
2023-08-06T11:50:46.777Z,19.07
2023-08-06T11:53:16.843Z,19.09
2023-08-06T11:55:44.440Z,19.20
2023-08-06T11:58:15.825Z,19.34
2023-08-06T12:00:43.432Z,19.30
2023-08-06T12:03:11.222Z,19.68
2023-08-06T12:05:39.967Z,19.47
2023-08-06T12:08:10.026Z,19.37
2023-08-06T12:10:36.638Z,19.80
2023-08-06T12:13:04.054Z,19.93
2023-08-06T12:15:33.247Z,20.10
2023-08-06T12:18:00.263Z,20.25
2023-08-06T12:20:26.896Z,19.93
2023-08-06T12:22:53.467Z,20.45
2023-08-06T12:25:20.049Z,20.70
2023-08-06T12:27:48.420Z,20.12
2023-08-06T12:30:15.082Z,20.12
2023-08-06T12:32:41.855Z,20.01
2023-08-06T12:35:09.357Z,19.93
2023-08-06T12:37:36.672Z,19.54
2023-08-06T12:40:23.666Z,19.73
2023-08-06T12:42:52.048Z,20.33
2023-08-06T12:45:22.151Z,20.61
2023-08-06T12:47:49.885Z,20.88
2023-08-06T12:50:16.578Z,20.94
2023-08-06T12:52:43.136Z,21.21
2023-08-06T12:55:10.755Z,21.05
2023-08-06T12:57:55.503Z,21.07
2023-08-06T13:00:23.884Z,20.91
2023-08-06T13:02:50.782Z,21.05
2023-08-06T13:05:17.396Z,21.31
2023-08-06T13:07:43.926Z,21.25
2023-08-06T13:10:10.633Z,21.41
2023-08-06T13:12:37.377Z,21.01
2023-08-06T13:15:04.239Z,20.39
2023-08-06T13:17:30.842Z,20.61
2023-08-06T13:19:57.430Z,20.51
2023-08-06T13:22:23.964Z,20.39
2023-08-06T13:24:50.598Z,20.45
2023-08-06T13:27:17.097Z,20.06
2023-08-06T13:29:43.640Z,19.24
2023-08-06T13:32:10.240Z,18.39
2023-08-06T13:34:36.892Z,18.00
2023-08-06T13:37:03.582Z,17.73
2023-08-06T13:39:30.223Z,17.71
2023-08-06T13:41:57.069Z,17.40
2023-08-06T13:44:24.730Z,17.40
2023-08-06T13:46:51.315Z,17.78
2023-08-06T13:49:17.825Z,17.91
2023-08-06T13:51:45.516Z,18.21
2023-08-06T13:54:12.089Z,18.15
2023-08-06T13:56:39.043Z,18.33
2023-08-06T13:59:05.950Z,18.45
2023-08-06T14:01:47.391Z,18.57
2023-08-06T14:04:16.295Z,18.75
2023-08-06T14:06:42.959Z,18.86
2023-08-06T14:09:09.635Z,18.60
2023-08-06T14:11:36.181Z,18.72
2023-08-06T14:14:04.488Z,18.45
2023-08-06T14:16:31.428Z,18.73
2023-08-06T14:18:58.000Z,18.75
2023-08-06T14:21:24.551Z,19.00
2023-08-06T14:23:51.158Z,18.53
2023-08-06T14:26:18.362Z,18.39
2023-08-06T14:28:45.043Z,18.27
2023-08-06T14:31:12.611Z,18.21
2023-08-06T14:33:39.228Z,18.24
2023-08-06T14:36:05.828Z,18.32
2023-08-06T14:38:33.132Z,18.55
2023-08-06T14:41:00.802Z,18.53
2023-08-06T14:43:27.522Z,18.23
2023-08-06T14:45:55.292Z,18.20
2023-08-06T14:48:22.336Z,17.97
2023-08-06T14:50:49.283Z,17.73
2023-08-06T14:53:16.081Z,17.52
2023-08-06T14:55:43.007Z,17.32
2023-08-06T14:58:09.633Z,17.58
2023-08-06T15:00:36.376Z,17.44
2023-08-06T15:03:03.060Z,17.37
2023-08-06T15:05:29.685Z,17.06
2023-08-06T15:07:56.278Z,17.54
2023-08-06T15:10:27.683Z,17.47
2023-08-06T15:12:55.249Z,17.27
2023-08-06T15:15:23.542Z,17.07
2023-08-06T15:17:51.402Z,17.11
2023-08-06T15:20:18.049Z,17.02
2023-08-06T15:22:44.674Z,16.73
2023-08-06T15:25:11.274Z,16.67
2023-08-06T15:27:37.962Z,16.49
2023-08-06T15:30:05.520Z,16.42
2023-08-06T15:32:32.475Z,16.42
2023-08-06T15:34:59.407Z,16.21
2023-08-06T15:37:27.242Z,16.04
2023-08-06T15:39:53.976Z,16.05
2023-08-06T15:42:20.601Z,16.21
2023-08-06T15:44:47.190Z,16.10
2023-08-06T15:47:14.172Z,16.01
2023-08-06T15:49:40.977Z,15.61
2023-08-06T15:52:07.933Z,15.97
2023-08-06T15:54:34.672Z,16.00
2023-08-06T15:57:01.353Z,15.86
2023-08-06T15:59:31.749Z,16.10
2023-08-06T16:01:59.508Z,16.19
2023-08-06T16:04:32.845Z,15.86
2023-08-06T16:07:00.166Z,15.81
2023-08-06T16:09:26.970Z,15.86
2023-08-06T16:11:54.593Z,15.82
2023-08-06T16:14:21.613Z,15.83
2023-08-06T16:16:49.580Z,15.65
2023-08-06T16:19:16.303Z,15.61
2023-08-06T16:21:43.145Z,15.51
2023-08-06T16:24:10.284Z,15.14
2023-08-06T16:26:37.508Z,15.18
2023-08-06T16:29:04.694Z,15.39
2023-08-06T16:31:31.570Z,15.23
2023-08-06T16:33:58.140Z,15.03
2023-08-06T16:36:26.038Z,15.16
2023-08-06T16:38:52.809Z,15.19
2023-08-06T16:41:19.657Z,15.20
2023-08-06T16:43:46.376Z,15.06
2023-08-06T16:46:13.035Z,15.10
2023-08-06T16:48:39.717Z,14.98
2023-08-06T16:51:07.528Z,14.85
2023-08-06T16:53:34.072Z,14.90
2023-08-06T16:56:00.932Z,15.03
2023-08-06T16:58:27.661Z,15.11
2023-08-06T17:00:56.034Z,15.03
2023-08-06T17:03:23.195Z,14.99
2023-08-06T17:05:49.914Z,14.99
2023-08-06T17:08:16.572Z,15.04
2023-08-06T17:10:43.104Z,14.77
2023-08-06T17:13:20.100Z,14.99
2023-08-06T17:15:47.872Z,15.17
2023-08-06T17:18:18.046Z,15.13
2023-08-06T17:20:46.022Z,15.19
2023-08-06T17:23:12.620Z,14.96
2023-08-06T17:25:45.929Z,15.24
2023-08-06T17:28:13.702Z,14.93
2023-08-06T17:30:43.977Z,14.95
2023-08-06T17:33:12.392Z,14.89
2023-08-06T17:35:43.972Z,14.64
2023-08-06T17:38:13.970Z,14.62
2023-08-06T17:40:40.599Z,14.64
2023-08-06T17:43:07.191Z,14.67
2023-08-06T17:45:33.821Z,14.59
2023-08-06T17:48:00.461Z,14.48
2023-08-06T17:50:27.273Z,14.33
2023-08-06T17:52:53.939Z,14.31
2023-08-06T17:55:20.617Z,14.42
2023-08-06T17:57:47.253Z,14.67
2023-08-06T18:00:13.993Z,14.43
2023-08-06T18:02:40.746Z,14.41
2023-08-06T18:05:07.775Z,14.32
2023-08-06T18:07:34.324Z,14.31
2023-08-06T18:10:00.875Z,14.54
2023-08-06T18:12:27.421Z,14.40
2023-08-06T18:14:54.170Z,14.43
2023-08-06T18:17:20.768Z,14.30
2023-08-06T18:19:48.693Z,14.39
2023-08-06T18:22:15.201Z,14.28
2023-08-06T18:24:41.901Z,13.95
2023-08-06T18:27:08.501Z,14.09
2023-08-06T18:29:35.120Z,14.10
2023-08-06T18:32:01.705Z,14.21
2023-08-06T18:34:28.283Z,14.08
2023-08-06T18:36:55.075Z,14.16
2023-08-06T18:39:21.920Z,14.10
2023-08-06T18:41:49.590Z,14.00
2023-08-06T18:44:16.109Z,13.85
2023-08-06T18:46:42.748Z,13.85
2023-08-06T18:49:09.320Z,13.83
2023-08-06T18:51:37.760Z,13.75
2023-08-06T18:54:04.353Z,13.74
2023-08-06T18:56:30.977Z,13.84
2023-08-06T18:58:57.525Z,13.84
2023-08-06T19:01:24.523Z,13.69
2023-08-06T19:03:51.123Z,13.72
2023-08-06T19:06:17.921Z,13.94
2023-08-06T19:08:45.011Z,13.75
2023-08-06T19:11:11.611Z,13.86
2023-08-06T19:13:38.346Z,13.97
2023-08-06T19:16:05.002Z,13.93
2023-08-06T19:18:31.613Z,13.98
2023-08-06T19:20:59.189Z,13.76
2023-08-06T19:23:28.668Z,13.76
2023-08-06T19:25:56.231Z,13.81
2023-08-06T19:28:22.921Z,13.82
2023-08-06T19:30:50.648Z,13.85
2023-08-06T19:33:18.128Z,13.88
2023-08-06T19:35:53.789Z,13.82
2023-08-06T19:38:22.890Z,13.95
2023-08-06T19:40:49.741Z,13.81
2023-08-06T19:43:19.198Z,13.79
2023-08-06T19:45:50.675Z,13.46
2023-08-06T19:48:17.406Z,13.58
2023-08-06T19:50:51.398Z,13.68
2023-08-06T19:53:18.021Z,13.83
2023-08-06T19:55:44.960Z,13.66
2023-08-06T19:58:11.572Z,13.63
2023-08-06T20:00:40.306Z,13.47
2023-08-06T20:03:07.427Z,13.37
2023-08-06T20:05:34.098Z,13.51
2023-08-06T20:08:02.052Z,13.70
2023-08-06T20:10:28.670Z,13.78
2023-08-06T20:12:56.017Z,13.59
2023-08-06T20:15:22.598Z,13.59
2023-08-06T20:17:49.156Z,13.38
2023-08-06T20:20:16.380Z,13.55
2023-08-06T20:22:43.077Z,13.38
2023-08-06T20:25:09.650Z,13.38
2023-08-06T20:27:36.402Z,13.48
2023-08-06T20:30:03.287Z,13.47
2023-08-06T20:32:30.166Z,13.31
2023-08-06T20:34:56.704Z,13.42
2023-08-06T20:37:23.371Z,13.51
2023-08-06T20:39:50.109Z,13.54
2023-08-06T20:42:17.620Z,13.62
2023-08-06T20:44:44.288Z,13.60
2023-08-06T20:47:10.854Z,13.44
2023-08-06T20:49:37.434Z,13.31
2023-08-06T20:52:05.971Z,13.50
2023-08-06T20:54:32.857Z,13.58
2023-08-06T20:56:59.404Z,13.47
2023-08-06T20:59:25.984Z,13.31
2023-08-06T21:01:52.622Z,13.39
2023-08-06T21:04:19.325Z,13.44
2023-08-06T21:06:46.065Z,13.23
2023-08-06T21:09:12.664Z,13.34
2023-08-06T21:11:39.214Z,13.40
2023-08-06T21:14:05.802Z,13.24
2023-08-06T21:16:32.704Z,13.28
2023-08-06T21:18:59.468Z,13.47
2023-08-06T21:21:26.042Z,13.18
2023-08-06T21:23:52.658Z,13.14
2023-08-06T21:26:20.336Z,13.45
2023-08-06T21:28:46.804Z,13.34
2023-08-06T21:31:13.594Z,13.19
2023-08-06T21:33:42.536Z,13.34
2023-08-06T21:36:10.640Z,13.42
2023-08-06T21:38:42.023Z,13.29
2023-08-06T21:41:16.061Z,13.41
2023-08-06T21:43:47.660Z,13.17
2023-08-06T21:46:19.193Z,13.27
2023-08-06T21:48:46.545Z,13.23
2023-08-06T21:51:21.565Z,13.30
2023-08-06T21:53:48.947Z,13.06
2023-08-06T21:56:16.529Z,13.26
2023-08-06T21:58:48.765Z,13.07
2023-08-06T22:01:16.748Z,13.17
2023-08-06T22:03:44.304Z,13.13
2023-08-06T22:06:11.994Z,13.11
2023-08-06T22:08:40.111Z,12.99
2023-08-06T22:11:07.202Z,13.13
2023-08-06T22:13:34.539Z,13.21
2023-08-06T22:16:01.130Z,13.01
2023-08-06T22:18:27.760Z,13.00
2023-08-06T22:20:58.446Z,13.26
2023-08-06T22:23:25.557Z,12.81
2023-08-06T22:25:53.185Z,12.91
2023-08-06T22:28:21.945Z,13.04
2023-08-06T22:30:48.703Z,12.81
2023-08-06T22:33:15.409Z,12.86
2023-08-06T22:35:41.966Z,12.92
2023-08-06T22:38:08.580Z,12.96
2023-08-06T22:40:35.134Z,12.86
2023-08-06T22:43:01.723Z,12.55
2023-08-06T22:45:28.672Z,12.91
2023-08-06T22:47:55.225Z,12.82
2023-08-06T22:50:21.807Z,12.76
2023-08-06T22:52:48.327Z,12.60
2023-08-06T22:55:26.952Z,12.66
2023-08-06T22:58:01.557Z,12.93
2023-08-06T23:00:28.374Z,12.84
2023-08-06T23:03:07.166Z,12.84
2023-08-06T23:05:37.146Z,12.78
2023-08-06T23:08:03.754Z,12.82
2023-08-06T23:10:30.338Z,12.78
2023-08-06T23:12:56.844Z,12.70
2023-08-06T23:15:23.422Z,12.97
2023-08-06T23:17:50.122Z,12.57
2023-08-06T23:20:16.760Z,12.67
2023-08-06T23:22:43.497Z,12.74
2023-08-06T23:25:10.353Z,12.74
2023-08-06T23:27:37.203Z,12.62
2023-08-06T23:30:05.386Z,12.77
2023-08-06T23:32:33.023Z,12.61
2023-08-06T23:34:59.657Z,12.58
2023-08-06T23:37:26.437Z,12.75
2023-08-06T23:39:56.096Z,12.86
2023-08-06T23:42:24.106Z,12.46
2023-08-06T23:44:51.295Z,12.55
2023-08-06T23:47:17.789Z,12.48
2023-08-06T23:49:44.341Z,12.43
2023-08-06T23:52:10.937Z,12.53
2023-08-06T23:54:38.027Z,12.67
2023-08-06T23:57:04.858Z,12.60
2023-08-06T23:59:32.390Z,12.47
